sensor_id;sensor_type;location;lat;lon;timestamp;temperature;humidity
21033;DHT22;10675;47.976;7.824;2023-08-07T00:01:50;14.80;99.90
21033;DHT22;10675;47.976;7.824;2023-08-07T00:04:16;14.80;99.90
21033;DHT22;10675;47.976;7.824;2023-08-07T00:06:41;14.90;99.90
21033;DHT22;10675;47.976;7.824;2023-08-07T00:09:07;14.90;99.90
21033;DHT22;10675;47.976;7.824;2023-08-07T00:11:32;14.80;99.90
21033;DHT22;10675;47.976;7.824;2023-08-07T00:13:58;14.80;99.90
21033;DHT22;10675;47.976;7.824;2023-08-07T00:16:24;14.80;99.90
21033;DHT22;10675;47.976;7.824;2023-08-07T00:18:49;14.80;99.90
21033;DHT22;10675;47.976;7.824;2023-08-07T00:21:15;14.70;99.90
21033;DHT22;10675;47.976;7.824;2023-08-07T00:23:40;14.70;99.90
21033;DHT22;10675;47.976;7.824;2023-08-07T00:26:06;14.70;99.90
21033;DHT22;10675;47.976;7.824;2023-08-07T00:28:32;14.70;99.90
21033;DHT22;10675;47.976;7.824;2023-08-07T00:30:57;14.70;99.90
21033;DHT22;10675;47.976;7.824;2023-08-07T00:33:23;14.70;99.90
21033;DHT22;10675;47.976;7.824;2023-08-07T00:35:48;14.80;99.90
21033;DHT22;10675;47.976;7.824;2023-08-07T00:38:14;14.70;99.90
21033;DHT22;10675;47.976;7.824;2023-08-07T00:40:40;14.70;99.90
21033;DHT22;10675;47.976;7.824;2023-08-07T00:43:06;14.60;99.90
21033;DHT22;10675;47.976;7.824;2023-08-07T00:45:36;14.70;99.90
21033;DHT22;10675;47.976;7.824;2023-08-07T00:48:03;14.70;99.90
21033;DHT22;10675;47.976;7.824;2023-08-07T00:50:29;14.70;99.90
21033;DHT22;10675;47.976;7.824;2023-08-07T00:52:55;14.70;99.90
21033;DHT22;10675;47.976;7.824;2023-08-07T00:55:20;14.60;99.90
21033;DHT22;10675;47.976;7.824;2023-08-07T00:57:46;14.60;99.90
21033;DHT22;10675;47.976;7.824;2023-08-07T01:00:13;14.60;99.90
21033;DHT22;10675;47.976;7.824;2023-08-07T01:02:39;14.60;99.90
21033;DHT22;10675;47.976;7.824;2023-08-07T01:05:05;14.60;99.90
21033;DHT22;10675;47.976;7.824;2023-08-07T01:07:30;14.60;99.90
21033;DHT22;10675;47.976;7.824;2023-08-07T01:09:56;14.60;99.90
21033;DHT22;10675;47.976;7.824;2023-08-07T01:12:30;14.60;99.90
21033;DHT22;10675;47.976;7.824;2023-08-07T01:15:03;14.70;99.90
21033;DHT22;10675;47.976;7.824;2023-08-07T01:17:33;14.70;99.90
21033;DHT22;10675;47.976;7.824;2023-08-07T01:20:00;14.70;99.90
21033;DHT22;10675;47.976;7.824;2023-08-07T01:22:26;14.60;99.90
21033;DHT22;10675;47.976;7.824;2023-08-07T01:24:51;14.70;99.90
21033;DHT22;10675;47.976;7.824;2023-08-07T01:30:09;14.60;99.90
21033;DHT22;10675;47.976;7.824;2023-08-07T01:35:15;14.60;99.90
21033;DHT22;10675;47.976;7.824;2023-08-07T01:37:42;14.60;99.90
21033;DHT22;10675;47.976;7.824;2023-08-07T01:40:10;14.60;99.90
21033;DHT22;10675;47.976;7.824;2023-08-07T01:42:37;14.60;99.90
21033;DHT22;10675;47.976;7.824;2023-08-07T01:45:04;14.50;99.90
21033;DHT22;10675;47.976;7.824;2023-08-07T01:47:30;14.50;99.90
21033;DHT22;10675;47.976;7.824;2023-08-07T01:49:56;14.50;99.90
21033;DHT22;10675;47.976;7.824;2023-08-07T01:52:21;14.40;99.90
21033;DHT22;10675;47.976;7.824;2023-08-07T01:54:47;14.40;99.90
21033;DHT22;10675;47.976;7.824;2023-08-07T01:57:12;14.40;99.90
21033;DHT22;10675;47.976;7.824;2023-08-07T01:59:38;14.40;99.90
21033;DHT22;10675;47.976;7.824;2023-08-07T02:02:04;14.40;99.90
21033;DHT22;10675;47.976;7.824;2023-08-07T02:04:29;14.40;99.90
21033;DHT22;10675;47.976;7.824;2023-08-07T02:06:55;14.40;99.90
21033;DHT22;10675;47.976;7.824;2023-08-07T02:09:20;14.50;99.90
21033;DHT22;10675;47.976;7.824;2023-08-07T02:11:46;14.40;99.90
21033;DHT22;10675;47.976;7.824;2023-08-07T02:14:12;14.40;99.90
21033;DHT22;10675;47.976;7.824;2023-08-07T02:16:37;14.40;99.90
21033;DHT22;10675;47.976;7.824;2023-08-07T02:19:03;14.40;99.90
21033;DHT22;10675;47.976;7.824;2023-08-07T02:21:28;14.40;99.90
21033;DHT22;10675;47.976;7.824;2023-08-07T02:23:54;14.40;99.90
21033;DHT22;10675;47.976;7.824;2023-08-07T02:26:19;14.40;99.90
21033;DHT22;10675;47.976;7.824;2023-08-07T02:28:45;14.40;99.90
21033;DHT22;10675;47.976;7.824;2023-08-07T02:31:10;14.40;99.90
21033;DHT22;10675;47.976;7.824;2023-08-07T02:33:36;14.40;99.90
21033;DHT22;10675;47.976;7.824;2023-08-07T02:36:01;14.40;99.90
21033;DHT22;10675;47.976;7.824;2023-08-07T02:38:27;14.30;99.90
21033;DHT22;10675;47.976;7.824;2023-08-07T02:40:52;14.30;99.90
21033;DHT22;10675;47.976;7.824;2023-08-07T02:43:18;14.40;99.90
21033;DHT22;10675;47.976;7.824;2023-08-07T02:45:43;14.40;99.90
21033;DHT22;10675;47.976;7.824;2023-08-07T02:48:09;14.30;99.90
21033;DHT22;10675;47.976;7.824;2023-08-07T02:50:35;14.40;99.90
21033;DHT22;10675;47.976;7.824;2023-08-07T02:53:01;14.40;99.90
21033;DHT22;10675;47.976;7.824;2023-08-07T02:55:27;14.30;99.90
21033;DHT22;10675;47.976;7.824;2023-08-07T02:57:52;14.40;99.90
21033;DHT22;10675;47.976;7.824;2023-08-07T03:00:18;14.40;99.90
21033;DHT22;10675;47.976;7.824;2023-08-07T03:02:44;14.30;99.90
21033;DHT22;10675;47.976;7.824;2023-08-07T03:05:09;14.40;99.90
21033;DHT22;10675;47.976;7.824;2023-08-07T03:07:35;14.40;99.90
21033;DHT22;10675;47.976;7.824;2023-08-07T03:10:01;14.40;99.90
21033;DHT22;10675;47.976;7.824;2023-08-07T03:12:26;14.30;99.90
21033;DHT22;10675;47.976;7.824;2023-08-07T03:14:52;14.40;99.90
21033;DHT22;10675;47.976;7.824;2023-08-07T03:17:17;14.40;99.90
21033;DHT22;10675;47.976;7.824;2023-08-07T03:19:43;14.40;99.90
21033;DHT22;10675;47.976;7.824;2023-08-07T03:22:09;14.30;99.90
21033;DHT22;10675;47.976;7.824;2023-08-07T03:24:35;14.30;99.90
21033;DHT22;10675;47.976;7.824;2023-08-07T03:27:00;14.30;99.90
21033;DHT22;10675;47.976;7.824;2023-08-07T03:29:26;14.30;99.90
21033;DHT22;10675;47.976;7.824;2023-08-07T03:31:52;14.20;99.90
21033;DHT22;10675;47.976;7.824;2023-08-07T03:34:17;14.20;99.90
21033;DHT22;10675;47.976;7.824;2023-08-07T03:36:43;14.20;99.90
21033;DHT22;10675;47.976;7.824;2023-08-07T03:39:08;14.30;99.90
21033;DHT22;10675;47.976;7.824;2023-08-07T03:41:35;14.20;99.90
21033;DHT22;10675;47.976;7.824;2023-08-07T03:44:01;14.20;99.90
21033;DHT22;10675;47.976;7.824;2023-08-07T03:46:26;14.20;99.90
21033;DHT22;10675;47.976;7.824;2023-08-07T03:48:52;14.20;99.90
21033;DHT22;10675;47.976;7.824;2023-08-07T03:51:18;14.20;99.90
21033;DHT22;10675;47.976;7.824;2023-08-07T03:53:43;14.10;99.90
21033;DHT22;10675;47.976;7.824;2023-08-07T03:56:09;14.10;99.90
21033;DHT22;10675;47.976;7.824;2023-08-07T03:58:34;14.00;99.90
21033;DHT22;10675;47.976;7.824;2023-08-07T04:01:00;14.50;99.90
21033;DHT22;10675;47.976;7.824;2023-08-07T04:03:25;13.90;99.90
21033;DHT22;10675;47.976;7.824;2023-08-07T04:05:54;13.90;99.90
21033;DHT22;10675;47.976;7.824;2023-08-07T04:08:23;13.90;99.90
21033;DHT22;10675;47.976;7.824;2023-08-07T04:11:02;13.90;99.90
21033;DHT22;10675;47.976;7.824;2023-08-07T04:13:28;13.80;99.90
21033;DHT22;10675;47.976;7.824;2023-08-07T04:15:54;13.80;99.90
21033;DHT22;10675;47.976;7.824;2023-08-07T04:18:19;13.70;99.90
21033;DHT22;10675;47.976;7.824;2023-08-07T04:20:55;14.40;99.90
21033;DHT22;10675;47.976;7.824;2023-08-07T04:23:21;14.40;99.90
21033;DHT22;10675;47.976;7.824;2023-08-07T04:25:47;14.90;99.90
21033;DHT22;10675;47.976;7.824;2023-08-07T04:28:13;15.30;99.90
21033;DHT22;10675;47.976;7.824;2023-08-07T04:30:39;15.20;99.90
21033;DHT22;10675;47.976;7.824;2023-08-07T04:33:04;14.40;99.90
21033;DHT22;10675;47.976;7.824;2023-08-07T04:35:30;14.10;99.90
21033;DHT22;10675;47.976;7.824;2023-08-07T04:37:56;14.00;99.90
21033;DHT22;10675;47.976;7.824;2023-08-07T04:40:22;13.90;99.90
21033;DHT22;10675;47.976;7.824;2023-08-07T04:42:49;13.90;99.90
21033;DHT22;10675;47.976;7.824;2023-08-07T04:45:14;13.90;99.90
21033;DHT22;10675;47.976;7.824;2023-08-07T04:47:40;13.90;99.90
21033;DHT22;10675;47.976;7.824;2023-08-07T04:50:06;14.00;99.90
21033;DHT22;10675;47.976;7.824;2023-08-07T04:52:32;13.90;99.90
21033;DHT22;10675;47.976;7.824;2023-08-07T04:54:58;14.00;99.90
21033;DHT22;10675;47.976;7.824;2023-08-07T04:57:23;14.00;99.90
21033;DHT22;10675;47.976;7.824;2023-08-07T04:59:49;14.00;99.90
21033;DHT22;10675;47.976;7.824;2023-08-07T05:02:14;14.00;99.90
21033;DHT22;10675;47.976;7.824;2023-08-07T05:04:40;14.00;99.90
21033;DHT22;10675;47.976;7.824;2023-08-07T05:07:05;14.00;99.90
21033;DHT22;10675;47.976;7.824;2023-08-07T05:09:31;13.90;99.90
21033;DHT22;10675;47.976;7.824;2023-08-07T05:11:56;13.90;99.90
21033;DHT22;10675;47.976;7.824;2023-08-07T05:14:22;13.90;99.90
21033;DHT22;10675;47.976;7.824;2023-08-07T05:16:48;13.90;99.90
21033;DHT22;10675;47.976;7.824;2023-08-07T05:19:13;13.90;99.90
21033;DHT22;10675;47.976;7.824;2023-08-07T05:21:39;13.90;99.90
21033;DHT22;10675;47.976;7.824;2023-08-07T05:24:04;13.80;99.90
21033;DHT22;10675;47.976;7.824;2023-08-07T05:26:30;13.80;99.90
21033;DHT22;10675;47.976;7.824;2023-08-07T05:28:56;13.80;99.90
21033;DHT22;10675;47.976;7.824;2023-08-07T05:31:24;13.80;99.90
21033;DHT22;10675;47.976;7.824;2023-08-07T05:33:49;13.80;99.90
21033;DHT22;10675;47.976;7.824;2023-08-07T05:36:15;13.80;99.90
21033;DHT22;10675;47.976;7.824;2023-08-07T05:38:40;13.80;99.90
21033;DHT22;10675;47.976;7.824;2023-08-07T05:41:06;13.80;99.90
21033;DHT22;10675;47.976;7.824;2023-08-07T05:43:32;13.80;99.90
21033;DHT22;10675;47.976;7.824;2023-08-07T05:45:57;13.80;99.90
21033;DHT22;10675;47.976;7.824;2023-08-07T05:48:23;13.80;99.90
21033;DHT22;10675;47.976;7.824;2023-08-07T05:50:48;13.80;99.90
21033;DHT22;10675;47.976;7.824;2023-08-07T05:53:14;13.90;99.90
21033;DHT22;10675;47.976;7.824;2023-08-07T05:55:40;13.90;99.90
21033;DHT22;10675;47.976;7.824;2023-08-07T05:58:07;13.90;99.90
21033;DHT22;10675;47.976;7.824;2023-08-07T06:00:33;13.90;99.90
21033;DHT22;10675;47.976;7.824;2023-08-07T06:02:59;14.00;99.90
21033;DHT22;10675;47.976;7.824;2023-08-07T06:05:24;14.00;99.90
21033;DHT22;10675;47.976;7.824;2023-08-07T06:07:50;14.00;99.90
21033;DHT22;10675;47.976;7.824;2023-08-07T06:10:15;14.10;99.90
21033;DHT22;10675;47.976;7.824;2023-08-07T06:12:41;14.00;99.90
21033;DHT22;10675;47.976;7.824;2023-08-07T06:15:07;14.10;99.90
21033;DHT22;10675;47.976;7.824;2023-08-07T06:17:32;14.10;99.90
21033;DHT22;10675;47.976;7.824;2023-08-07T06:19:58;14.10;99.90
21033;DHT22;10675;47.976;7.824;2023-08-07T06:22:24;14.10;99.90
21033;DHT22;10675;47.976;7.824;2023-08-07T06:24:49;14.10;99.90
21033;DHT22;10675;47.976;7.824;2023-08-07T06:27:15;14.10;99.90
21033;DHT22;10675;47.976;7.824;2023-08-07T06:29:41;14.20;99.90
21033;DHT22;10675;47.976;7.824;2023-08-07T06:32:06;14.20;99.90
21033;DHT22;10675;47.976;7.824;2023-08-07T06:34:32;14.20;99.90
21033;DHT22;10675;47.976;7.824;2023-08-07T06:36:57;14.30;99.90
21033;DHT22;10675;47.976;7.824;2023-08-07T06:39:23;14.20;99.90
21033;DHT22;10675;47.976;7.824;2023-08-07T06:41:48;14.30;99.90
21033;DHT22;10675;47.976;7.824;2023-08-07T06:44:14;14.30;99.90
21033;DHT22;10675;47.976;7.824;2023-08-07T06:46:40;14.40;99.90
21033;DHT22;10675;47.976;7.824;2023-08-07T06:49:05;14.30;99.90
21033;DHT22;10675;47.976;7.824;2023-08-07T06:51:31;14.40;99.90
21033;DHT22;10675;47.976;7.824;2023-08-07T06:53:56;14.30;99.90
21033;DHT22;10675;47.976;7.824;2023-08-07T06:56:22;14.30;99.90
21033;DHT22;10675;47.976;7.824;2023-08-07T06:58:47;14.30;99.90
21033;DHT22;10675;47.976;7.824;2023-08-07T07:01:13;14.30;99.90
21033;DHT22;10675;47.976;7.824;2023-08-07T07:03:38;14.30;99.90
21033;DHT22;10675;47.976;7.824;2023-08-07T07:06:04;14.30;99.90
21033;DHT22;10675;47.976;7.824;2023-08-07T07:08:29;14.20;99.90
21033;DHT22;10675;47.976;7.824;2023-08-07T07:10:55;14.30;99.90
21033;DHT22;10675;47.976;7.824;2023-08-07T07:13:22;14.30;99.90
21033;DHT22;10675;47.976;7.824;2023-08-07T07:15:53;14.30;99.90
21033;DHT22;10675;47.976;7.824;2023-08-07T07:18:18;14.30;99.90
21033;DHT22;10675;47.976;7.824;2023-08-07T07:20:44;14.30;99.90
21033;DHT22;10675;47.976;7.824;2023-08-07T07:23:09;14.40;99.90
21033;DHT22;10675;47.976;7.824;2023-08-07T07:25:35;14.40;99.90
21033;DHT22;10675;47.976;7.824;2023-08-07T07:28:00;15.10;99.90
21033;DHT22;10675;47.976;7.824;2023-08-07T07:30:26;15.00;99.90
21033;DHT22;10675;47.976;7.824;2023-08-07T07:32:51;15.10;99.90
21033;DHT22;10675;47.976;7.824;2023-08-07T07:35:17;15.20;99.90
21033;DHT22;10675;47.976;7.824;2023-08-07T07:37:42;15.30;99.90
21033;DHT22;10675;47.976;7.824;2023-08-07T07:40:09;15.30;99.90
21033;DHT22;10675;47.976;7.824;2023-08-07T07:42:34;15.30;99.90
21033;DHT22;10675;47.976;7.824;2023-08-07T07:45:00;15.20;99.90
21033;DHT22;10675;47.976;7.824;2023-08-07T07:47:25;15.40;99.90
21033;DHT22;10675;47.976;7.824;2023-08-07T07:50:05;15.20;99.90
21033;DHT22;10675;47.976;7.824;2023-08-07T07:52:31;15.30;99.90
21033;DHT22;10675;47.976;7.824;2023-08-07T07:54:56;15.60;99.90
21033;DHT22;10675;47.976;7.824;2023-08-07T07:57:22;15.40;99.90
21033;DHT22;10675;47.976;7.824;2023-08-07T07:59:47;15.80;99.90
21033;DHT22;10675;47.976;7.824;2023-08-07T08:02:14;15.60;99.90
21033;DHT22;10675;47.976;7.824;2023-08-07T08:04:41;16.00;99.90
21033;DHT22;10675;47.976;7.824;2023-08-07T08:07:07;15.80;99.90
21033;DHT22;10675;47.976;7.824;2023-08-07T08:09:32;16.00;99.90
21033;DHT22;10675;47.976;7.824;2023-08-07T08:11:59;16.20;99.90
21033;DHT22;10675;47.976;7.824;2023-08-07T08:14:25;16.20;99.90
21033;DHT22;10675;47.976;7.824;2023-08-07T08:16:50;16.40;99.90
21033;DHT22;10675;47.976;7.824;2023-08-07T08:19:16;16.30;99.90
21033;DHT22;10675;47.976;7.824;2023-08-07T08:21:42;16.20;99.90
21033;DHT22;10675;47.976;7.824;2023-08-07T08:24:08;16.20;99.90
21033;DHT22;10675;47.976;7.824;2023-08-07T08:26:33;15.70;99.90
21033;DHT22;10675;47.976;7.824;2023-08-07T08:28:59;15.90;99.90
21033;DHT22;10675;47.976;7.824;2023-08-07T08:31:24;15.90;99.90
21033;DHT22;10675;47.976;7.824;2023-08-07T08:33:50;15.90;99.90
21033;DHT22;10675;47.976;7.824;2023-08-07T08:36:15;15.70;99.90
21033;DHT22;10675;47.976;7.824;2023-08-07T08:38:41;15.60;99.90
21033;DHT22;10675;47.976;7.824;2023-08-07T08:41:09;14.90;99.90
21033;DHT22;10675;47.976;7.824;2023-08-07T08:43:35;15.40;99.90
21033;DHT22;10675;47.976;7.824;2023-08-07T08:46:04;15.50;99.90
21033;DHT22;10675;47.976;7.824;2023-08-07T08:48:36;15.50;99.90
21033;DHT22;10675;47.976;7.824;2023-08-07T08:51:04;15.40;99.90
21033;DHT22;10675;47.976;7.824;2023-08-07T08:53:30;15.50;99.90
21033;DHT22;10675;47.976;7.824;2023-08-07T08:55:56;15.50;99.90
21033;DHT22;10675;47.976;7.824;2023-08-07T08:58:23;15.50;99.90
21033;DHT22;10675;47.976;7.824;2023-08-07T09:00:49;15.70;99.90
21033;DHT22;10675;47.976;7.824;2023-08-07T09:03:16;15.70;99.90
21033;DHT22;10675;47.976;7.824;2023-08-07T09:05:42;15.80;99.90
21033;DHT22;10675;47.976;7.824;2023-08-07T09:08:09;15.90;99.90
21033;DHT22;10675;47.976;7.824;2023-08-07T09:10:35;16.00;99.90
21033;DHT22;10675;47.976;7.824;2023-08-07T09:13:03;16.10;99.90
21033;DHT22;10675;47.976;7.824;2023-08-07T09:15:31;16.20;99.90
21033;DHT22;10675;47.976;7.824;2023-08-07T09:17:57;16.10;99.90
21033;DHT22;10675;47.976;7.824;2023-08-07T09:20:24;16.20;99.90
21033;DHT22;10675;47.976;7.824;2023-08-07T09:22:50;16.50;99.90
21033;DHT22;10675;47.976;7.824;2023-08-07T09:25:27;16.70;99.90
21033;DHT22;10675;47.976;7.824;2023-08-07T09:27:55;16.50;99.90
21033;DHT22;10675;47.976;7.824;2023-08-07T09:30:26;16.60;99.90
21033;DHT22;10675;47.976;7.824;2023-08-07T09:32:53;16.60;99.90
21033;DHT22;10675;47.976;7.824;2023-08-07T09:35:22;16.60;99.90
21033;DHT22;10675;47.976;7.824;2023-08-07T09:37:48;16.70;99.90
21033;DHT22;10675;47.976;7.824;2023-08-07T09:40:14;16.60;99.90
21033;DHT22;10675;47.976;7.824;2023-08-07T09:42:41;16.60;99.90
21033;DHT22;10675;47.976;7.824;2023-08-07T09:45:21;16.60;99.90
21033;DHT22;10675;47.976;7.824;2023-08-07T09:47:47;16.60;99.90
21033;DHT22;10675;47.976;7.824;2023-08-07T09:50:21;16.60;99.90
21033;DHT22;10675;47.976;7.824;2023-08-07T09:52:48;16.60;99.90
21033;DHT22;10675;47.976;7.824;2023-08-07T09:55:14;16.50;99.90
21033;DHT22;10675;47.976;7.824;2023-08-07T09:57:43;16.50;99.90
21033;DHT22;10675;47.976;7.824;2023-08-07T10:00:09;16.60;99.90
21033;DHT22;10675;47.976;7.824;2023-08-07T10:02:39;16.70;99.90
21033;DHT22;10675;47.976;7.824;2023-08-07T10:05:06;16.70;99.90
21033;DHT22;10675;47.976;7.824;2023-08-07T10:07:32;17.00;99.90
21033;DHT22;10675;47.976;7.824;2023-08-07T10:10:02;17.20;99.90
21033;DHT22;10675;47.976;7.824;2023-08-07T10:12:28;17.30;99.90
21033;DHT22;10675;47.976;7.824;2023-08-07T10:14:55;17.40;99.90
21033;DHT22;10675;47.976;7.824;2023-08-07T10:17:23;17.30;99.90
21033;DHT22;10675;47.976;7.824;2023-08-07T10:19:51;17.40;99.90
21033;DHT22;10675;47.976;7.824;2023-08-07T10:22:18;17.30;99.90
21033;DHT22;10675;47.976;7.824;2023-08-07T10:24:47;17.40;99.90
21033;DHT22;10675;47.976;7.824;2023-08-07T10:27:15;17.40;99.90
21033;DHT22;10675;47.976;7.824;2023-08-07T10:29:41;17.30;99.90
21033;DHT22;10675;47.976;7.824;2023-08-07T10:32:08;17.30;99.90
21033;DHT22;10675;47.976;7.824;2023-08-07T10:34:36;17.40;99.90
21033;DHT22;10675;47.976;7.824;2023-08-07T10:37:06;17.50;99.90
21033;DHT22;10675;47.976;7.824;2023-08-07T10:39:31;17.60;99.90
21033;DHT22;10675;47.976;7.824;2023-08-07T10:41:57;17.70;99.90
21033;DHT22;10675;47.976;7.824;2023-08-07T10:44:25;17.70;99.90
21033;DHT22;10675;47.976;7.824;2023-08-07T10:46:53;17.80;99.70
21033;DHT22;10675;47.976;7.824;2023-08-07T10:49:38;17.60;99.90
21033;DHT22;10675;47.976;7.824;2023-08-07T10:52:11;17.50;99.90
21033;DHT22;10675;47.976;7.824;2023-08-07T10:54:38;17.50;99.90
21033;DHT22;10675;47.976;7.824;2023-08-07T10:57:10;17.40;99.90
21033;DHT22;10675;47.976;7.824;2023-08-07T10:59:37;17.50;99.90
21033;DHT22;10675;47.976;7.824;2023-08-07T11:02:08;17.70;99.60
21033;DHT22;10675;47.976;7.824;2023-08-07T11:04:36;17.90;99.90
21033;DHT22;10675;47.976;7.824;2023-08-07T11:07:02;17.90;99.80
21033;DHT22;10675;47.976;7.824;2023-08-07T11:09:27;17.80;99.70
21033;DHT22;10675;47.976;7.824;2023-08-07T11:11:53;17.90;99.90
21033;DHT22;10675;47.976;7.824;2023-08-07T11:14:19;18.00;99.90
21033;DHT22;10675;47.976;7.824;2023-08-07T11:16:46;18.20;99.80
21033;DHT22;10675;47.976;7.824;2023-08-07T11:19:13;18.50;99.90
21033;DHT22;10675;47.976;7.824;2023-08-07T11:21:40;18.30;98.40
21033;DHT22;10675;47.976;7.824;2023-08-07T11:24:06;18.40;97.90
21033;DHT22;10675;47.976;7.824;2023-08-07T11:26:32;18.50;97.30
21033;DHT22;10675;47.976;7.824;2023-08-07T11:28:57;18.40;96.60
21033;DHT22;10675;47.976;7.824;2023-08-07T11:31:24;18.40;97.00
21033;DHT22;10675;47.976;7.824;2023-08-07T11:33:51;18.40;96.50
21033;DHT22;10675;47.976;7.824;2023-08-07T11:36:17;18.20;96.50
21033;DHT22;10675;47.976;7.824;2023-08-07T11:38:43;18.30;96.50
21033;DHT22;10675;47.976;7.824;2023-08-07T11:41:11;18.40;95.80
21033;DHT22;10675;47.976;7.824;2023-08-07T11:43:37;18.60;93.70
21033;DHT22;10675;47.976;7.824;2023-08-07T11:46:11;18.40;93.00
21033;DHT22;10675;47.976;7.824;2023-08-07T11:48:38;18.50;93.00
21033;DHT22;10675;47.976;7.824;2023-08-07T11:51:04;18.50;93.70
21033;DHT22;10675;47.976;7.824;2023-08-07T11:53:32;18.70;92.40
21033;DHT22;10675;47.976;7.824;2023-08-07T11:56:00;19.00;92.10
21033;DHT22;10675;47.976;7.824;2023-08-07T11:58:28;19.30;91.00
21033;DHT22;10675;47.976;7.824;2023-08-07T12:00:58;19.20;90.50
21033;DHT22;10675;47.976;7.824;2023-08-07T12:03:28;19.20;90.60
21033;DHT22;10675;47.976;7.824;2023-08-07T12:05:56;19.00;91.40
21033;DHT22;10675;47.976;7.824;2023-08-07T12:08:23;18.90;92.30
21033;DHT22;10675;47.976;7.824;2023-08-07T12:10:50;18.80;91.40
21033;DHT22;10675;47.976;7.824;2023-08-07T12:13:19;18.60;91.70
21033;DHT22;10675;47.976;7.824;2023-08-07T12:15:45;18.50;91.50
21033;DHT22;10675;47.976;7.824;2023-08-07T12:18:10;18.50;92.10
21033;DHT22;10675;47.976;7.824;2023-08-07T12:20:37;18.50;92.80
21033;DHT22;10675;47.976;7.824;2023-08-07T12:23:02;18.40;93.90
21033;DHT22;10675;47.976;7.824;2023-08-07T12:25:28;18.10;92.70
21033;DHT22;10675;47.976;7.824;2023-08-07T12:27:54;18.40;93.40
21033;DHT22;10675;47.976;7.824;2023-08-07T12:30:19;18.70;93.00
21033;DHT22;10675;47.976;7.824;2023-08-07T12:32:45;19.10;93.40
21033;DHT22;10675;47.976;7.824;2023-08-07T12:35:11;19.70;91.30
21033;DHT22;10675;47.976;7.824;2023-08-07T12:37:36;20.00;88.50
21033;DHT22;10675;47.976;7.824;2023-08-07T12:40:02;19.80;84.20
21033;DHT22;10675;47.976;7.824;2023-08-07T12:42:28;19.60;82.00
21033;DHT22;10675;47.976;7.824;2023-08-07T12:44:55;19.40;80.70
21033;DHT22;10675;47.976;7.824;2023-08-07T12:47:20;19.10;82.80
21033;DHT22;10675;47.976;7.824;2023-08-07T12:49:46;19.10;85.50
21033;DHT22;10675;47.976;7.824;2023-08-07T12:52:13;19.00;83.10
21033;DHT22;10675;47.976;7.824;2023-08-07T12:54:38;19.00;82.70
21033;DHT22;10675;47.976;7.824;2023-08-07T12:57:04;19.60;81.40
21033;DHT22;10675;47.976;7.824;2023-08-07T12:59:29;20.40;81.20
21033;DHT22;10675;47.976;7.824;2023-08-07T13:01:55;20.80;76.70
21033;DHT22;10675;47.976;7.824;2023-08-07T13:04:20;21.10;75.10
21033;DHT22;10675;47.976;7.824;2023-08-07T13:06:46;20.70;75.10
21033;DHT22;10675;47.976;7.824;2023-08-07T13:09:11;20.40;75.00
21033;DHT22;10675;47.976;7.824;2023-08-07T13:11:37;20.20;76.30
21033;DHT22;10675;47.976;7.824;2023-08-07T13:14:02;19.80;76.60
21033;DHT22;10675;47.976;7.824;2023-08-07T13:16:28;19.90;78.20
21033;DHT22;10675;47.976;7.824;2023-08-07T13:18:54;19.80;78.10
21033;DHT22;10675;47.976;7.824;2023-08-07T13:21:19;19.60;75.50
21033;DHT22;10675;47.976;7.824;2023-08-07T13:23:45;19.60;78.00
21033;DHT22;10675;47.976;7.824;2023-08-07T13:26:10;19.60;78.40
21033;DHT22;10675;47.976;7.824;2023-08-07T13:28:36;20.00;75.70
21033;DHT22;10675;47.976;7.824;2023-08-07T13:31:01;20.10;73.70
21033;DHT22;10675;47.976;7.824;2023-08-07T13:33:27;20.20;74.10
21033;DHT22;10675;47.976;7.824;2023-08-07T13:35:52;20.20;76.00
21033;DHT22;10675;47.976;7.824;2023-08-07T13:38:18;20.00;77.90
21033;DHT22;10675;47.976;7.824;2023-08-07T13:40:44;20.50;76.60
21033;DHT22;10675;47.976;7.824;2023-08-07T13:43:10;20.70;73.00
21033;DHT22;10675;47.976;7.824;2023-08-07T13:45:36;21.00;74.30
21033;DHT22;10675;47.976;7.824;2023-08-07T13:48:02;21.30;71.30
21033;DHT22;10675;47.976;7.824;2023-08-07T13:50:29;20.70;73.00
21033;DHT22;10675;47.976;7.824;2023-08-07T13:52:54;20.10;76.20
21033;DHT22;10675;47.976;7.824;2023-08-07T13:55:20;19.90;77.70
21033;DHT22;10675;47.976;7.824;2023-08-07T13:57:45;19.50;78.20
21033;DHT22;10675;47.976;7.824;2023-08-07T14:00:11;19.10;79.90
21033;DHT22;10675;47.976;7.824;2023-08-07T14:02:37;18.90;82.50
21033;DHT22;10675;47.976;7.824;2023-08-07T14:05:04;18.90;83.30
21033;DHT22;10675;47.976;7.824;2023-08-07T14:07:29;18.80;85.60
21033;DHT22;10675;47.976;7.824;2023-08-07T14:09:55;18.90;85.40
21033;DHT22;10675;47.976;7.824;2023-08-07T14:12:20;19.60;84.20
21033;DHT22;10675;47.976;7.824;2023-08-07T14:14:46;19.90;83.80
21033;DHT22;10675;47.976;7.824;2023-08-07T14:17:11;20.00;82.60
21033;DHT22;10675;47.976;7.824;2023-08-07T14:19:37;19.90;80.10
21033;DHT22;10675;47.976;7.824;2023-08-07T14:22:02;20.20;80.80
21033;DHT22;10675;47.976;7.824;2023-08-07T14:24:28;20.50;79.60
21033;DHT22;10675;47.976;7.824;2023-08-07T14:26:53;20.40;79.60
21033;DHT22;10675;47.976;7.824;2023-08-07T14:29:19;20.20;78.30
21033;DHT22;10675;47.976;7.824;2023-08-07T14:31:45;20.30;79.10
21033;DHT22;10675;47.976;7.824;2023-08-07T14:34:10;20.30;73.70
21033;DHT22;10675;47.976;7.824;2023-08-07T14:36:36;20.20;73.50
21033;DHT22;10675;47.976;7.824;2023-08-07T14:39:02;20.10;74.90
21033;DHT22;10675;47.976;7.824;2023-08-07T14:41:28;20.10;76.50
21033;DHT22;10675;47.976;7.824;2023-08-07T14:43:53;20.20;74.50
21033;DHT22;10675;47.976;7.824;2023-08-07T14:46:20;20.20;73.60
21033;DHT22;10675;47.976;7.824;2023-08-07T14:48:45;20.20;71.30
21033;DHT22;10675;47.976;7.824;2023-08-07T14:51:12;19.90;73.00
21033;DHT22;10675;47.976;7.824;2023-08-07T14:53:37;19.90;74.80
21033;DHT22;10675;47.976;7.824;2023-08-07T14:56:03;20.10;77.00
21033;DHT22;10675;47.976;7.824;2023-08-07T14:58:29;20.30;74.80
21033;DHT22;10675;47.976;7.824;2023-08-07T15:00:55;20.30;70.60
21033;DHT22;10675;47.976;7.824;2023-08-07T15:03:21;20.10;72.20
21033;DHT22;10675;47.976;7.824;2023-08-07T15:05:46;20.10;73.40
21033;DHT22;10675;47.976;7.824;2023-08-07T15:08:12;19.80;74.70
21033;DHT22;10675;47.976;7.824;2023-08-07T15:10:37;19.60;74.60
21033;DHT22;10675;47.976;7.824;2023-08-07T15:13:05;19.40;75.10
21033;DHT22;10675;47.976;7.824;2023-08-07T15:15:31;19.40;74.90
21033;DHT22;10675;47.976;7.824;2023-08-07T15:17:58;19.40;75.70
21033;DHT22;10675;47.976;7.824;2023-08-07T15:20:23;19.40;76.10
21033;DHT22;10675;47.976;7.824;2023-08-07T15:22:49;19.30;77.60
21033;DHT22;10675;47.976;7.824;2023-08-07T15:25:15;19.20;78.00
21033;DHT22;10675;47.976;7.824;2023-08-07T15:27:41;19.00;78.80
21033;DHT22;10675;47.976;7.824;2023-08-07T15:30:07;19.00;80.10